Rose City, MI

7:36 AM EDT on March 28, 2015 (GMT -0400)
Rose Township | | Change Station
CLOSE
Current Station
Personal Weather Station
Location: Lupton, MI
Elevation: 922 ft
Nearby Weather Stations

Elev 922 ft 44.43 °N, 84.01 °W | Updated 20 seconds ago

Clear
Clear
9.0 °F
Feels Like 9 °F
N
0.0
Wind Variable Wind from West
Gusts 0.0 mph

Today
High -- | Low -- °F
--% Chance of Precip.
Yesterday
High -- | Low -- °F
Precip. -- in
7:25 AM 7:58 PM
First Quarter, 61% visible
Pressure 30.30 in
Visibility 10.0 miles
Clouds Clear
Windchill 9 °F
Dew Point 6 °F
Humidity 87%
Rainfall 0.00 in
Snow Depth Not available.
UV 0 out of 12
Pollen 1.00 out of 12
Air Quality Not available.
Flu Activity Not available.
METAR KHTL 281053Z AUTO 00000KT 10SM CLR M14/M17 A3022 RMK AO2 SLP259 I1000 T11441172

More Conditions Fewer Conditions

Pressure 30.30 in
Visibility 10.0 miles
Clouds Clear
Windchill 9 °F
Dew Point 6 °F
Humidity 87%
Rainfall 0.00 in
Snow Depth Not available.
UV 0 out of 12
Pollen 1.00 out of 12
Air Quality Not available.
Flu Activity Not available.
METAR KHTL 281053Z AUTO 00000KT 10SM CLR M14/M17 A3022 RMK AO2 SLP259 I1000 T11441172

More Conditions Fewer Conditions

Nowcast | as of 7:00 am EDT on March 28, 2015

At 8 am...clear. Temperature 10 above. Light winds. At 10 am...clear. Temperature 15. North winds 6 mph. At 12 PM...clear. Temperature 25. Northwest winds 6 mph. At 2 PM...clear. Temperature 31. Northwest winds 5 mph.

×

10-Day Weather Forecast

Almanac

Astronomy

Mar. 28, 2015 Rise Set
Actual Time
Civil Twilight
Nautical Twilight
Astronomical Twilight
Moon
Length of Visible Light
Length of Day
Tomorrow will be .
, % of the Moon is Illuminated

Today's Extremes

State Highs State Lows

Community

WunderPhotos

Upload Photos

1,808,958 photos uploaded!

WunderBlogs® & News

Nearby

Air Quality

  Air Quality AQ Index Pollutant
Not available.

Snow Depth

Station Depth Elevation

Earthquake Activity

City Distance Mag. Time & Date
Minimum magnitude displayed is 2.5.

Coastal Water Temperatures

Place Temperature

Stations

Nearby Weather Stations

Station Location Temp. Windchill Dew Point Humidity Wind Precip. Elev Updated Type